Time;durP1;ratioP1;P1;durP2;ratioP2;P2;SDS_P1;SDS_P2;PMS_P1;PMS_P2;Temp;Humidity;BMP_temperature;BMP_pressure;BME280_temperature;BME280_humidity;BME280_pressure;Samples;Min_cycle;Max_cycle;Signal;HPM_P1;HPM_P2
2022/11/09 00:01:02;;;;;;;3.90;2.20;;;13.20;99.90;;;;;;5052703;28;20713;-55
2022/11/09 00:03:30;;;;;;;3.20;2.30;;;13.20;99.90;;;;;;5052697;28;20251;-56
2022/11/09 00:05:59;;;;;;;3.20;2.03;;;13.20;99.90;;;;;;5053253;28;20680;-55
2022/11/09 00:08:28;;;;;;;3.50;2.10;;;13.10;99.90;;;;;;5052414;28;20230;-56
2022/11/09 00:11:04;;;;;;;5.47;2.20;;;13.10;99.90;;;;;;5052594;28;20289;-56
2022/11/09 00:13:35;;;;;;;2.57;1.70;;;13.10;99.90;;;;;;5056606;28;20728;-55
2022/11/09 00:16:04;;;;;;;3.97;1.83;;;13.10;99.90;;;;;;5059911;28;20681;-56
2022/11/09 00:18:33;;;;;;;5.47;2.27;;;13.20;99.90;;;;;;5065860;28;20238;-56
2022/11/09 00:21:05;;;;;;;3.00;2.07;;;13.20;99.90;;;;;;5052490;28;20620;-56
2022/11/09 00:23:34;;;;;;;3.20;2.40;;;13.20;99.90;;;;;;5052709;28;20694;-56
2022/11/09 00:26:05;;;;;;;3.17;2.10;;;13.20;99.90;;;;;;5058258;28;20239;-55
2022/11/09 00:28:34;;;;;;;4.30;1.90;;;13.20;99.90;;;;;;5052585;28;20242;-55
2022/11/09 00:31:03;;;;;;;3.20;1.90;;;13.10;99.90;;;;;;5052173;28;20243;-55
2022/11/09 00:33:31;;;;;;;1.83;1.63;;;13.10;99.90;;;;;;5050982;28;20285;-56
2022/11/09 00:35:59;;;;;;;4.63;1.80;;;13.10;99.90;;;;;;5052614;28;20230;-55
2022/11/09 00:38:27;;;;;;;2.37;1.77;;;13.10;99.90;;;;;;5052343;28;20230;-55
2022/11/09 00:41:00;;;;;;;4.10;1.80;;;13.10;99.90;;;;;;5051055;28;20226;-56
2022/11/09 00:43:33;;;;;;;2.60;2.03;;;13.10;99.90;;;;;;5054796;28;20753;-56
2022/11/09 00:46:02;;;;;;;4.57;1.87;;;13.10;99.90;;;;;;5057676;28;20234;-56
2022/11/09 00:48:30;;;;;;;2.40;1.90;;;13.10;99.90;;;;;;5060541;28;20268;-55
2022/11/09 00:51:01;;;;;;;3.37;1.90;;;13.10;99.90;;;;;;5050847;28;20229;-56
2022/11/09 00:53:31;;;;;;;2.43;1.83;;;13.10;99.90;;;;;;5052281;28;20590;-56
2022/11/09 00:56:00;;;;;;;3.83;2.43;;;13.10;99.90;;;;;;5056636;28;20245;-55
2022/11/09 00:58:30;;;;;;;4.53;2.07;;;13.10;99.90;;;;;;5050852;28;20234;-56
2022/11/09 01:01:05;;;;;;;3.50;2.20;;;13.10;99.90;;;;;;5050300;28;20243;-55
2022/11/09 01:03:34;;;;;;;4.27;2.07;;;13.00;99.90;;;;;;5052035;28;20254;-56
2022/11/09 01:06:02;;;;;;;3.43;2.00;;;13.10;99.90;;;;;;5050932;28;20598;-56
2022/11/09 01:08:32;;;;;;;3.90;1.83;;;13.10;99.90;;;;;;5051945;28;20270;-56
2022/11/09 01:11:05;;;;;;;3.37;2.10;;;13.00;99.90;;;;;;5053035;28;20234;-55
2022/11/09 01:13:33;;;;;;;2.53;2.20;;;13.10;99.90;;;;;;5059651;28;20231;-56
2022/11/09 01:16:06;;;;;;;3.70;2.20;;;13.00;99.90;;;;;;5061855;28;20226;-55
2022/11/09 01:18:36;;;;;;;2.90;1.97;;;13.00;99.90;;;;;;5067075;28;20234;-56
2022/11/09 01:21:06;;;;;;;3.33;2.17;;;13.00;99.90;;;;;;5055470;28;20629;-56
2022/11/09 01:23:34;;;;;;;3.90;2.20;;;13.00;99.90;;;;;;5055472;28;20215;-56
2022/11/09 01:26:05;;;;;;;3.83;2.20;;;13.00;99.90;;;;;;5060300;28;20230;-55
2022/11/09 01:28:33;;;;;;;3.33;2.10;;;13.00;99.90;;;;;;5055308;28;20238;-55
2022/11/09 01:31:07;;;;;;;2.37;1.90;;;13.00;99.90;;;;;;5053703;28;20242;-56
2022/11/09 01:33:35;;;;;;;2.87;1.90;;;13.00;99.90;;;;;;5055435;28;20229;-56
2022/11/09 01:36:04;;;;;;;3.17;1.90;;;12.90;99.90;;;;;;5055376;28;20238;-56
2022/11/09 01:38:33;;;;;;;2.53;2.13;;;12.90;99.90;;;;;;5053857;28;20235;-56
2022/11/09 01:41:01;;;;;;;3.33;1.73;;;12.90;99.90;;;;;;5055268;28;20219;-56
2022/11/09 01:43:29;;;;;;;2.77;1.93;;;12.90;99.90;;;;;;5058920;28;20250;-56
2022/11/09 01:46:03;;;;;;;3.03;1.80;;;12.90;99.90;;;;;;5060947;28;20720;-56
2022/11/09 01:48:39;;;;;;;2.47;1.80;;;12.90;99.90;;;;;;5055933;28;20220;-56
2022/11/09 01:51:12;;;;;;;3.27;1.70;;;12.90;99.90;;;;;;5054566;28;20231;-56
2022/11/09 01:53:44;;;;;;;4.57;1.87;;;12.90;99.90;;;;;;5053692;28;20234;-55
2022/11/09 01:56:14;;;;;;;2.77;1.87;;;12.90;99.90;;;;;;5061036;28;20227;-56
2022/11/09 01:58:46;;;;;;;2.93;2.13;;;13.00;99.90;;;;;;5053614;28;20234;-56
2022/11/09 02:01:17;;;;;;;3.80;2.30;;;12.90;99.90;;;;;;5054182;28;20602;-55
2022/11/09 02:03:51;;;;;;;4.43;2.10;;;12.90;99.90;;;;;;5054737;28;20276;-55
2022/11/09 02:06:27;;;;;;;3.60;2.43;;;12.90;99.90;;;;;;5053525;28;20233;-56
2022/11/09 02:09:00;;;;;;;3.70;2.00;;;12.90;99.90;;;;;;5053670;28;20234;-56
2022/11/09 02:11:29;;;;;;;2.97;2.00;;;12.90;99.90;;;;;;5054519;28;20646;-55
2022/11/09 02:14:00;;;;;;;3.67;2.10;;;12.80;99.90;;;;;;5057057;28;20227;-56
2022/11/09 02:16:29;;;;;;;2.67;1.97;;;12.80;99.90;;;;;;5066346;28;20218;-55
2022/11/09 02:19:00;;;;;;;3.50;2.00;;;12.80;99.90;;;;;;5055236;28;20690;-55
2022/11/09 02:21:32;;;;;;;4.10;1.93;;;12.80;99.90;;;;;;5054408;28;20226;-56
2022/11/09 02:24:00;;;;;;;2.80;1.77;;;12.80;99.90;;;;;;5054623;28;20223;-56
2022/11/09 02:26:33;;;;;;;3.57;2.07;;;12.80;99.90;;;;;;5054118;28;20218;-55
2022/11/09 02:29:05;;;;;;;2.27;1.90;;;12.90;99.90;;;;;;5054233;28;20241;-56
2022/11/09 02:31:38;;;;;;;4.20;1.90;;;12.90;99.90;;;;;;5052364;28;20232;-56
2022/11/09 02:34:08;;;;;;;3.40;2.17;;;12.90;99.90;;;;;;5054285;28;20238;-56
2022/11/09 02:36:38;;;;;;;3.93;2.07;;;12.90;99.90;;;;;;5052686;28;20231;-56
2022/11/09 02:39:13;;;;;;;2.63;2.10;;;12.90;99.90;;;;;;5052841;28;20237;-55
2022/11/09 02:41:44;;;;;;;7.60;2.40;;;12.90;99.90;;;;;;5052756;28;20226;-56
2022/11/09 02:44:13;;;;;;;2.73;2.10;;;13.00;99.90;;;;;;5056572;28;20233;-56
2022/11/09 02:46:41;;;;;;;3.90;2.20;;;12.90;99.90;;;;;;5066380;28;20238;-55
2022/11/09 02:49:09;;;;;;;2.43;1.87;;;12.90;99.90;;;;;;5054291;28;20298;-56
2022/11/09 02:51:39;;;;;;;2.83;1.80;;;12.90;99.90;;;;;;5052684;28;20231;-55
2022/11/09 02:54:07;;;;;;;3.20;1.80;;;13.00;99.90;;;;;;5054573;28;20226;-57
2022/11/09 02:56:36;;;;;;;2.30;1.97;;;12.90;99.90;;;;;;5057067;28;20644;-56
2022/11/09 02:59:04;;;;;;;2.53;1.87;;;13.00;99.90;;;;;;5052285;28;20270;-56
2022/11/09 03:01:33;;;;;;;3.57;2.13;;;13.00;99.90;;;;;;5058476;28;20241;-56
2022/11/09 03:04:02;;;;;;;2.57;1.87;;;13.00;99.90;;;;;;5061216;28;20257;-56
2022/11/09 03:06:34;;;;;;;2.80;1.80;;;13.00;99.90;;;;;;5052025;28;20674;-56
2022/11/09 03:09:09;;;;;;;3.47;2.30;;;12.90;99.90;;;;;;5052216;28;20234;-56
2022/11/09 03:11:38;;;;;;;2.43;1.90;;;12.90;99.90;;;;;;5052060;28;20238;-56
2022/11/09 03:14:08;;;;;;;3.50;2.17;;;12.90;99.90;;;;;;5057501;28;20568;-56
2022/11/09 03:16:38;;;;;;;4.10;2.20;;;12.90;99.90;;;;;;5052535;28;20226;-55
2022/11/09 03:19:07;;;;;;;2.80;2.00;;;12.90;99.90;;;;;;5059768;28;20226;-55
2022/11/09 03:21:35;;;;;;;3.77;2.20;;;12.90;99.90;;;;;;5053195;28;20226;-56
2022/11/09 03:24:03;;;;;;;2.27;2.00;;;12.90;99.90;;;;;;5053593;28;20221;-56
2022/11/09 03:26:33;;;;;;;3.70;2.00;;;12.90;99.90;;;;;;5056873;28;20596;-56
2022/11/09 03:29:01;;;;;;;3.47;2.10;;;12.90;99.90;;;;;;5051836;28;20235;-55
2022/11/09 03:31:31;;;;;;;4.63;2.17;;;12.90;99.90;;;;;;5051309;28;20325;-55
2022/11/09 03:34:03;;;;;;;3.80;2.40;;;12.90;99.90;;;;;;5051533;28;20227;-56
2022/11/09 03:36:34;;;;;;;2.97;2.10;;;12.90;99.90;;;;;;5053050;28;20239;-56
2022/11/09 03:39:03;;;;;;;3.23;1.93;;;12.90;99.90;;;;;;5052114;28;20258;-56
2022/11/09 03:41:34;;;;;;;2.70;2.03;;;12.80;99.90;;;;;;5051749;28;20226;-56
2022/11/09 03:44:02;;;;;;;3.93;1.90;;;12.90;99.90;;;;;;5055498;28;20581;-56
2022/11/09 03:46:30;;;;;;;3.50;2.20;;;13.00;99.90;;;;;;5066886;28;20342;-56
2022/11/09 03:48:58;;;;;;;3.57;2.20;;;12.90;99.90;;;;;;5062678;28;20233;-55
2022/11/09 03:51:26;;;;;;;3.50;2.13;;;12.90;99.90;;;;;;5052561;28;20234;-56
2022/11/09 03:53:54;;;;;;;3.00;2.00;;;12.90;99.90;;;;;;5053178;28;20560;-56
2022/11/09 03:56:22;;;;;;;3.33;1.83;;;12.90;99.90;;;;;;5058812;28;20625;-56
2022/11/09 03:58:52;;;;;;;3.33;1.83;;;12.90;99.90;;;;;;5052996;28;20231;-56
2022/11/09 04:01:20;;;;;;;4.17;2.57;;;13.00;99.90;;;;;;5052696;28;20250;-56
2022/11/09 04:03:48;;;;;;;3.10;1.90;;;13.00;99.90;;;;;;5052475;28;20253;-56
2022/11/09 04:06:16;;;;;;;4.37;2.10;;;13.00;99.90;;;;;;5053185;28;20258;-55
2022/11/09 04:08:44;;;;;;;4.67;2.30;;;13.00;99.90;;;;;;5053012;28;20246;-56
2022/11/09 04:11:19;;;;;;;2.80;1.77;;;13.00;99.90;;;;;;5053022;28;20234;-55
2022/11/09 04:13:47;;;;;;;2.47;2.03;;;13.00;99.90;;;;;;5056533;28;20234;-56
2022/11/09 04:16:16;;;;;;;3.10;2.30;;;12.90;99.90;;;;;;5064456;28;20237;-55
2022/11/09 04:18:44;;;;;;;3.33;2.20;;;12.90;99.90;;;;;;5064271;28;20747;-56
2022/11/09 04:21:12;;;;;;;3.10;2.00;;;12.90;99.90;;;;;;5052723;28;20218;-56
2022/11/09 04:23:40;;;;;;;4.63;2.07;;;12.90;99.90;;;;;;5055104;28;20221;-56
2022/11/09 04:26:09;;;;;;;4.03;2.17;;;12.90;99.90;;;;;;5065631;28;20230;-56
2022/11/09 04:28:37;;;;;;;3.17;1.90;;;12.80;99.90;;;;;;5060491;28;20284;-55
2022/11/09 04:31:05;;;;;;;3.50;1.97;;;12.90;99.90;;;;;;5059591;28;20250;-55
2022/11/09 04:33:35;;;;;;;3.23;2.00;;;12.90;99.90;;;;;;5064079;28;20235;-56
2022/11/09 04:36:03;;;;;;;3.57;1.90;;;12.90;99.90;;;;;;5058131;28;20232;-56
2022/11/09 04:38:31;;;;;;;2.23;1.90;;;12.90;99.90;;;;;;5063152;28;20236;-56
2022/11/09 04:41:04;;;;;;;2.50;2.10;;;12.90;99.90;;;;;;5060222;28;20644;-56
2022/11/09 04:43:32;;;;;;;3.50;1.80;;;12.90;99.90;;;;;;5056003;28;20250;-56
2022/11/09 04:46:01;;;;;;;4.50;1.90;;;12.90;99.90;;;;;;5053648;28;20230;-56
2022/11/09 04:48:29;;;;;;;4.17;1.90;;;12.90;99.90;;;;;;5063070;28;20229;-56
2022/11/09 04:51:03;;;;;;;3.77;1.73;;;12.90;99.90;;;;;;5056135;28;20239;-55
2022/11/09 04:53:33;;;;;;;4.30;2.43;;;12.90;99.90;;;;;;5056199;28;20226;-56
2022/11/09 04:56:01;;;;;;;3.80;2.10;;;12.90;99.90;;;;;;5056284;28;20223;-55
2022/11/09 04:58:29;;;;;;;4.00;1.90;;;12.90;99.90;;;;;;5056218;28;20242;-56
2022/11/09 05:01:02;;;;;;;4.33;1.93;;;12.90;99.90;;;;;;5055963;28;20763;-55
2022/11/09 05:03:30;;;;;;;3.77;1.97;;;12.90;99.90;;;;;;5055808;28;20251;-55
2022/11/09 05:05:59;;;;;;;3.10;1.80;;;13.00;99.90;;;;;;5055766;28;20262;-56
2022/11/09 05:08:28;;;;;;;3.30;1.70;;;13.00;99.90;;;;;;5061777;28;20716;-55
2022/11/09 05:10:57;;;;;;;3.40;1.80;;;13.10;99.90;;;;;;5075920;28;20214;-55
2022/11/09 05:13:25;;;;;;;5.80;2.10;;;13.10;99.90;;;;;;5070189;28;20272;-56
2022/11/09 05:15:53;;;;;;;2.60;1.67;;;13.10;99.90;;;;;;5055735;28;20585;-55
2022/11/09 05:18:21;;;;;;;3.10;1.67;;;13.10;99.90;;;;;;5063451;28;20223;-56
2022/11/09 05:20:49;;;;;;;3.57;1.83;;;13.10;99.90;;;;;;5054992;28;20229;-55
2022/11/09 05:26:00;;;;;;;3.43;1.83;;;13.20;99.90;;;;;;5051063;28;20246;-55
2022/11/09 05:28:28;;;;;;;2.53;1.60;;;13.10;99.90;;;;;;5055656;28;20629;-56
2022/11/09 05:30:56;;;;;;;2.57;1.70;;;13.20;99.90;;;;;;5055282;28;20725;-55
2022/11/09 05:33:24;;;;;;;3.90;2.00;;;13.20;99.90;;;;;;5055358;28;20239;-56
2022/11/09 05:35:54;;;;;;;4.63;1.80;;;13.10;99.90;;;;;;5055526;28;20719;-55
2022/11/09 05:38:23;;;;;;;4.03;2.00;;;13.10;99.90;;;;;;5060704;28;20226;-55
2022/11/09 05:40:52;;;;;;;4.33;2.03;;;13.10;99.90;;;;;;5070864;28;20233;-56
2022/11/09 05:43:21;;;;;;;3.37;1.70;;;13.10;99.90;;;;;;5069287;28;20237;-56
2022/11/09 05:45:50;;;;;;;3.27;2.00;;;13.10;99.90;;;;;;5054967;28;20285;-56
2022/11/09 05:48:18;;;;;;;3.60;1.93;;;13.10;99.90;;;;;;5062958;28;20234;-56
2022/11/09 05:50:46;;;;;;;2.60;2.00;;;13.10;99.90;;;;;;5054919;28;20234;-56
2022/11/09 05:53:26;;;;;;;3.20;1.80;;;13.10;99.90;;;;;;5053848;28;20739;-55
2022/11/09 05:55:54;;;;;;;2.53;1.83;;;13.10;99.90;;;;;;5053887;28;20233;-56
2022/11/09 05:58:26;;;;;;;2.50;1.80;;;13.10;99.90;;;;;;5054862;28;20246;-56
2022/11/09 06:00:54;;;;;;;3.77;2.03;;;13.10;99.90;;;;;;5054681;28;20729;-55
2022/11/09 06:03:22;;;;;;;2.20;1.90;;;13.10;99.90;;;;;;5055071;28;20239;-56
2022/11/09 06:05:51;;;;;;;1.47;1.37;;;13.20;99.90;;;;;;5059058;28;20227;-56
2022/11/09 06:08:19;;;;;;;2.83;1.67;;;13.20;99.90;;;;;;5054992;28;20231;-56
2022/11/09 06:10:47;;;;;;;3.97;1.60;;;13.20;99.90;;;;;;5055203;28;20253;-56
2022/11/09 06:13:15;;;;;;;2.90;1.70;;;13.20;99.90;;;;;;5058503;28;21014;-55
2022/11/09 06:15:51;;;;;;;5.63;1.83;;;13.30;99.90;;;;;;5054638;28;20727;-56
2022/11/09 06:18:19;;;;;;;1.73;1.53;;;13.30;99.90;;;;;;5062485;28;20718;-56
2022/11/09 06:20:50;;;;;;;3.00;1.77;;;13.30;99.90;;;;;;5062308;28;20241;-56
2022/11/09 06:23:18;;;;;;;3.50;1.53;;;13.30;99.90;;;;;;5063915;28;20223;-55
2022/11/09 06:25:47;;;;;;;3.07;1.60;;;13.30;99.90;;;;;;5063206;28;20241;-57
2022/11/09 06:28:15;;;;;;;3.00;1.70;;;13.30;99.90;;;;;;5054510;28;20230;-56
2022/11/09 06:30:44;;;;;;;3.60;1.80;;;13.30;99.90;;;;;;5053842;28;20304;-56
2022/11/09 06:33:13;;;;;;;2.90;1.80;;;13.30;99.90;;;;;;5056905;28;20231;-56
2022/11/09 06:35:41;;;;;;;1.97;1.73;;;13.40;99.90;;;;;;5058933;28;20239;-56
2022/11/09 06:38:10;;;;;;;2.77;1.73;;;13.40;99.90;;;;;;5053745;28;20693;-55
2022/11/09 06:40:38;;;;;;;3.03;1.97;;;13.30;99.90;;;;;;5054952;28;20261;-55
2022/11/09 06:43:06;;;;;;;2.67;1.53;;;13.40;99.90;;;;;;5059289;28;20709;-56
2022/11/09 06:45:35;;;;;;;4.63;1.77;;;13.40;99.90;;;;;;5057206;28;20226;-56
2022/11/09 06:48:04;;;;;;;3.77;2.47;;;13.30;99.90;;;;;;5056002;28;20231;-55
2022/11/09 06:50:34;;;;;;;6.40;2.47;;;13.30;99.90;;;;;;5053460;28;20321;-56
2022/11/09 06:53:05;;;;;;;2.13;1.93;;;13.30;99.90;;;;;;5055651;28;20230;-56
2022/11/09 06:55:34;;;;;;;5.10;2.63;;;13.30;99.90;;;;;;5055778;28;20260;-56
2022/11/09 06:58:06;;;;;;;3.67;1.77;;;13.30;99.90;;;;;;5056548;28;20798;-55
2022/11/09 07:00:34;;;;;;;3.87;1.80;;;13.30;99.90;;;;;;5058811;28;20371;-56
2022/11/09 07:03:04;;;;;;;3.10;1.67;;;13.30;99.90;;;;;;5056783;28;20254;-57
2022/11/09 07:05:32;;;;;;;3.17;1.50;;;13.30;99.90;;;;;;5057743;28;20229;-58
2022/11/09 07:08:00;;;;;;;4.03;1.67;;;13.20;99.90;;;;;;5059437;28;20229;-56
2022/11/09 07:10:28;;;;;;;4.27;1.70;;;13.20;99.90;;;;;;5057584;28;20693;-56
2022/11/09 07:12:57;;;;;;;3.60;1.73;;;13.20;99.90;;;;;;5057616;28;20247;-57
2022/11/09 07:15:25;;;;;;;2.93;1.47;;;13.20;99.90;;;;;;5054947;28;21050;-55
2022/11/09 07:17:57;;;;;;;2.20;1.47;;;13.20;99.90;;;;;;5058286;28;20246;-57
2022/11/09 07:20:26;;;;;;;5.83;1.70;;;13.20;99.90;;;;;;5056322;28;20241;-56
2022/11/09 07:22:55;;;;;;;3.37;1.60;;;13.20;99.90;;;;;;5051876;28;20238;-56
2022/11/09 07:25:23;;;;;;;2.53;1.50;;;13.30;99.90;;;;;;5051375;28;20239;-56
2022/11/09 07:27:52;;;;;;;2.60;1.70;;;13.30;99.90;;;;;;5057637;28;20237;-57
2022/11/09 07:30:20;;;;;;;2.83;1.70;;;13.30;99.90;;;;;;5059449;28;20229;-55
2022/11/09 07:32:48;;;;;;;3.30;1.77;;;13.40;99.90;;;;;;5058759;28;20234;-56
2022/11/09 07:35:37;;;;;;;4.60;1.60;;;13.40;99.90;;;;;;5054909;28;20360;-55
2022/11/09 07:38:05;;;;;;;3.80;2.03;;;13.40;99.90;;;;;;5057528;28;20234;-55
2022/11/09 07:40:34;;;;;;;2.63;1.57;;;13.40;99.90;;;;;;5057575;28;20226;-56
2022/11/09 07:43:04;;;;;;;4.07;1.50;;;13.40;99.90;;;;;;5057493;28;20765;-56
2022/11/09 07:45:34;;;;;;;2.87;1.30;;;13.50;99.90;;;;;;5054676;28;20605;-57
2022/11/09 07:48:04;;;;;;;2.90;1.77;;;13.40;99.90;;;;;;5057420;28;21475;-56
2022/11/09 07:50:33;;;;;;;4.20;1.77;;;13.40;99.90;;;;;;5058585;28;20222;-55
2022/11/09 07:53:04;;;;;;;5.20;1.63;;;13.40;99.90;;;;;;5059507;28;20235;-56
2022/11/09 07:55:32;;;;;;;2.83;1.80;;;13.40;99.90;;;;;;5055473;28;20300;-54
2022/11/09 07:58:03;;;;;;;2.33;1.60;;;13.40;99.90;;;;;;5057366;28;20227;-55
2022/11/09 08:00:33;;;;;;;2.30;1.67;;;13.40;99.90;;;;;;5058472;28;20253;-55
2022/11/09 08:03:01;;;;;;;4.20;1.57;;;13.50;99.90;;;;;;5058228;28;20234;-55
2022/11/09 08:05:29;;;;;;;3.13;1.53;;;13.50;99.90;;;;;;5054433;28;20651;-56
2022/11/09 08:08:00;;;;;;;3.57;1.50;;;13.50;99.90;;;;;;5055013;28;20684;-55
2022/11/09 08:10:31;;;;;;;3.17;1.47;;;13.60;99.90;;;;;;5055270;28;20740;-56
2022/11/09 08:13:01;;;;;;;5.03;1.70;;;13.60;99.90;;;;;;5054167;28;20231;-57
2022/11/09 08:15:29;;;;;;;2.63;1.53;;;13.60;99.90;;;;;;5050407;28;20233;-57
2022/11/09 08:18:00;;;;;;;4.97;1.67;;;13.60;99.90;;;;;;5055758;28;20222;-56
2022/11/09 08:20:29;;;;;;;4.97;1.70;;;13.60;99.90;;;;;;5054275;28;20226;-55
2022/11/09 08:22:57;;;;;;;5.87;1.80;;;13.80;99.90;;;;;;5055229;28;20235;-55
2022/11/09 08:25:33;;;;;;;2.67;1.70;;;14.00;99.90;;;;;;5055181;28;20310;-55
2022/11/09 08:28:02;;;;;;;4.50;1.70;;;14.20;99.90;;;;;;5054726;28;20239;-55
2022/11/09 08:30:30;;;;;;;4.33;1.73;;;14.40;99.90;;;;;;5057123;28;20230;-56
2022/11/09 08:32:59;;;;;;;4.83;2.17;;;14.50;99.90;;;;;;5061106;28;20223;-55
2022/11/09 08:35:27;;;;;;;4.77;1.93;;;14.60;99.90;;;;;;5058813;28;20234;-55
2022/11/09 08:37:55;;;;;;;4.50;1.77;;;14.80;99.90;;;;;;5061206;28;20280;-54
2022/11/09 08:40:25;;;;;;;4.70;1.70;;;14.80;99.90;;;;;;5060687;28;20702;-55
2022/11/09 08:42:55;;;;;;;4.70;1.57;;;14.80;99.90;;;;;;5059678;28;20235;-55
2022/11/09 08:45:23;;;;;;;5.10;1.47;;;15.00;99.90;;;;;;5058763;28;20249;-55
2022/11/09 08:47:58;;;;;;;5.50;1.50;;;15.10;99.90;;;;;;5060463;28;20591;-56
2022/11/09 08:50:27;;;;;;;5.27;1.73;;;15.20;99.90;;;;;;5059235;28;20238;-55
2022/11/09 08:52:55;;;;;;;5.20;1.60;;;15.30;99.90;;;;;;5059852;28;20226;-55
2022/11/09 08:55:24;;;;;;;6.03;1.80;;;15.40;99.90;;;;;;5056844;28;20238;-55
2022/11/09 08:57:55;;;;;;;6.70;1.93;;;15.50;99.90;;;;;;5060841;28;20235;-54
2022/11/09 09:00:24;;;;;;;4.87;1.70;;;15.50;99.90;;;;;;5057880;28;20583;-56
2022/11/09 09:02:52;;;;;;;3.77;1.67;;;15.60;99.90;;;;;;5056183;28;20247;-55
2022/11/09 09:05:21;;;;;;;6.50;1.80;;;15.60;99.90;;;;;;5053171;28;20228;-56
2022/11/09 09:07:49;;;;;;;4.93;1.87;;;15.70;99.90;;;;;;5056253;28;20703;-56
2022/11/09 09:10:18;;;;;;;4.67;1.90;;;15.70;99.90;;;;;;5054871;28;20239;-56
2022/11/09 09:12:46;;;;;;;6.43;1.93;;;15.70;99.90;;;;;;5056332;28;20238;-56
2022/11/09 09:15:15;;;;;;;4.60;1.80;;;15.80;99.90;;;;;;5053072;28;20243;-56
2022/11/09 09:17:44;;;;;;;5.63;2.20;;;15.80;99.90;;;;;;5057767;28;20231;-56
2022/11/09 09:20:12;;;;;;;6.33;1.97;;;15.90;99.90;;;;;;5057315;28;20273;-55
2022/11/09 09:22:40;;;;;;;4.80;1.73;;;16.00;99.90;;;;;;5056715;28;20219;-55
2022/11/09 09:25:09;;;;;;;5.07;1.70;;;16.10;99.90;;;;;;5056490;28;20230;-54
2022/11/09 09:27:37;;;;;;;5.20;1.90;;;16.30;99.90;;;;;;5055188;28;20231;-57
2022/11/09 09:30:06;;;;;;;6.33;1.67;;;16.30;99.90;;;;;;5057265;28;20228;-55
2022/11/09 09:32:35;;;;;;;7.17;2.03;;;16.30;99.90;;;;;;5052809;28;20293;-55
2022/11/09 09:35:04;;;;;;;5.10;1.73;;;16.40;99.90;;;;;;5051068;28;20239;-55
2022/11/09 09:37:32;;;;;;;5.23;1.73;;;16.40;99.90;;;;;;5055875;28;20230;-55
2022/11/09 09:40:00;;;;;;;7.53;1.80;;;16.40;99.90;;;;;;5053096;28;20749;-56
2022/11/09 09:42:34;;;;;;;6.63;1.60;;;16.20;99.90;;;;;;5060051;28;20243;-57
2022/11/09 09:45:08;;;;;;;6.80;1.90;;;16.20;99.90;;;;;;5055671;28;20247;-56
2022/11/09 09:47:49;;;;;;;7.10;1.53;;;16.30;99.90;;;;;;5060170;28;20223;-55
2022/11/09 09:50:21;;;;;;;8.30;2.00;;;16.50;99.90;;;;;;5059884;28;20227;-56
2022/11/09 09:52:54;;;;;;;6.20;2.00;;;16.30;99.90;;;;;;5059639;28;20691;-55
2022/11/09 09:55:45;;;;;;;8.63;1.90;;;16.40;99.90;;;;;;5055111;28;20344;-57
2022/11/09 09:58:20;;;;;;;6.23;1.87;;;16.50;99.90;;;;;;5054855;28;20682;-56
2022/11/09 10:00:54;;;;;;;3.33;1.60;;;16.50;99.90;;;;;;5056902;28;20235;-55
2022/11/09 10:03:24;;;;;;;6.93;1.80;;;16.40;99.90;;;;;;5058846;28;20247;-55
2022/11/09 10:05:58;;;;;;;7.87;1.83;;;16.30;99.90;;;;;;5055937;28;20345;-55
2022/11/09 10:08:38;;;;;;;6.30;2.00;;;16.30;99.90;;;;;;5057177;28;20235;-54
2022/11/09 10:11:16;;;;;;;5.63;2.50;;;16.30;99.90;;;;;;5058953;28;20226;-56
2022/11/09 10:14:04;;;;;;;5.67;2.30;;;16.30;99.90;;;;;;5052461;28;20326;-56
2022/11/09 10:16:40;;;;;;;8.90;2.90;;;16.20;99.90;;;;;;5052129;28;20235;-55
2022/11/09 10:19:29;;;;;;;5.80;2.00;;;16.10;99.90;;;;;;5057708;28;20235;-55
2022/11/09 10:22:06;;;;;;;7.93;2.23;;;16.00;99.90;;;;;;5059558;28;20598;-55
2022/11/09 10:24:44;;;;;;;7.97;2.13;;;15.90;99.90;;;;;;5058466;28;20234;-56
2022/11/09 10:27:35;;;;;;;6.23;2.00;;;15.90;99.90;;;;;;5057740;28;20234;-56
2022/11/09 10:30:11;;;;;;;6.30;2.23;;;16.00;99.90;;;;;;5058258;28;20243;-55
2022/11/09 10:32:41;;;;;;;6.70;2.00;;;15.90;99.90;;;;;;5059473;28;20227;-55
2022/11/09 10:35:19;;;;;;;5.80;2.00;;;15.70;99.90;;;;;;5057394;28;20231;-55
2022/11/09 10:37:49;;;;;;;5.83;2.00;;;15.70;99.90;;;;;;5059333;28;20242;-55
2022/11/09 10:40:22;;;;;;;5.73;2.40;;;15.80;99.90;;;;;;5056918;28;21337;-55
2022/11/09 10:43:10;;;;;;;9.43;2.40;;;15.80;99.90;;;;;;5056903;28;20303;-56
2022/11/09 10:46:03;;;;;;;7.73;2.00;;;16.00;99.90;;;;;;5053016;28;20366;-55
2022/11/09 10:48:51;;;;;;;6.73;2.10;;;16.10;99.90;;;;;;5051823;28;20239;-55
2022/11/09 10:51:42;;;;;;;8.43;2.27;;;16.20;99.90;;;;;;5056425;28;20231;-55
2022/11/09 10:54:31;;;;;;;6.37;2.07;;;16.20;99.90;;;;;;5053396;28;20223;-55
2022/11/09 10:57:19;;;;;;;6.93;2.10;;;16.30;99.90;;;;;;5053196;28;20235;-56
2022/11/09 11:00:13;;;;;;;6.50;2.03;;;16.50;99.90;;;;;;5059867;28;20289;-56
2022/11/09 11:03:10;;;;;;;6.67;2.10;;;16.50;99.90;;;;;;5058926;28;20266;-55
2022/11/09 11:05:58;;;;;;;7.90;2.23;;;16.50;99.90;;;;;;5055006;28;20234;-55
2022/11/09 11:08:47;;;;;;;6.73;2.37;;;16.50;99.90;;;;;;5054906;28;20316;-56
2022/11/09 11:11:35;;;;;;;7.43;2.50;;;16.50;99.90;;;;;;5054629;28;20262;-57
2022/11/09 11:14:29;;;;;;;8.73;2.77;;;16.50;99.90;;;;;;5052824;28;20281;-54
2022/11/09 11:17:24;;;;;;;9.70;2.37;;;16.40;99.90;;;;;;5055509;28;20308;-56
2022/11/09 11:20:27;;;;;;;8.07;2.23;;;16.50;99.90;;;;;;5053350;28;20784;-55
2022/11/09 11:23:19;;;;;;;5.77;1.73;;;16.70;99.90;;;;;;5052817;28;20235;-56
2022/11/09 11:26:27;;;;;;;6.20;1.93;;;16.80;99.90;;;;;;5053108;28;20227;-55
2022/11/09 11:29:29;;;;;;;6.47;1.83;;;16.70;99.90;;;;;;5051122;28;20303;-56
2022/11/09 11:32:18;;;;;;;8.67;2.20;;;16.60;99.90;;;;;;5048614;28;20234;-55
2022/11/09 11:35:12;;;;;;;6.77;2.13;;;16.60;99.90;;;;;;5055063;28;20246;-56
2022/11/09 11:38:14;;;;;;;7.60;1.83;;;16.40;99.90;;;;;;5057743;28;20290;-55
2022/11/09 11:41:08;;;;;;;6.30;1.83;;;16.40;99.90;;;;;;5055845;28;20269;-56
2022/11/09 11:44:03;;;;;;;7.20;2.07;;;16.40;99.90;;;;;;5058779;28;20582;-55
2022/11/09 11:47:00;;;;;;;6.97;1.80;;;16.30;99.90;;;;;;5053822;28;20250;-55
2022/11/09 11:50:08;;;;;;;6.13;1.97;;;16.30;99.90;;;;;;5052249;28;20231;-55
2022/11/09 11:53:08;;;;;;;5.63;1.90;;;16.30;99.90;;;;;;5051443;28;20281;-55
2022/11/09 11:56:12;;;;;;;6.10;1.80;;;16.40;99.90;;;;;;5051021;28;20246;-56
2022/11/09 11:59:37;;;;;;;6.77;2.10;;;16.50;99.90;;;;;;5051069;28;20325;-56
2022/11/09 12:03:05;;;;;;;5.87;1.60;;;16.40;99.90;;;;;;5054486;28;20242;-55
2022/11/09 12:06:15;;;;;;;6.97;1.97;;;16.40;99.90;;;;;;5056687;28;20241;-57
2022/11/09 12:09:13;;;;;;;8.37;2.03;;;16.50;99.90;;;;;;5054939;28;20281;-56
2022/11/09 12:12:14;;;;;;;8.20;1.80;;;16.40;99.90;;;;;;5056861;28;20241;-55
2022/11/09 12:15:29;;;;;;;7.40;2.03;;;16.30;99.90;;;;;;5058051;28;20234;-56
2022/11/09 12:18:28;;;;;;;5.87;1.97;;;16.30;99.90;;;;;;5057464;28;20277;-55
2022/11/09 12:21:17;;;;;;;4.70;1.57;;;16.30;99.90;;;;;;5058173;28;20791;-54
2022/11/09 12:24:23;;;;;;;5.57;1.53;;;16.20;99.90;;;;;;5056815;28;20238;-56
2022/11/09 12:27:36;;;;;;;5.13;1.57;;;16.20;99.90;;;;;;5056427;28;20726;-55
2022/11/09 12:30:30;;;;;;;3.50;1.43;;;16.30;99.90;;;;;;5051107;28;20796;-54
2022/11/09 12:33:23;;;;;;;6.73;2.10;;;16.30;99.90;;;;;;5056350;28;20226;-56
2022/11/09 12:36:21;;;;;;;5.60;1.43;;;16.30;99.90;;;;;;5056128;28;20234;-57
2022/11/09 12:39:17;;;;;;;4.80;1.50;;;16.20;99.90;;;;;;5050916;28;20246;-56
2022/11/09 12:42:09;;;;;;;7.60;1.53;;;16.10;99.90;;;;;;5054766;28;20241;-56
2022/11/09 12:45:11;;;;;;;8.83;1.97;;;16.20;99.90;;;;;;5052316;28;20623;-56
2022/11/09 12:48:03;;;;;;;5.20;1.87;;;16.00;99.90;;;;;;5051598;28;20227;-56
2022/11/09 12:50:51;;;;;;;4.17;1.70;;;16.00;99.90;;;;;;5055005;28;20247;-57
2022/11/09 12:53:38;;;;;;;7.77;1.67;;;16.00;99.90;;;;;;5057255;28;20246;-56
2022/11/09 12:56:29;;;;;;;8.50;1.83;;;16.00;99.90;;;;;;5052521;28;20583;-54
2022/11/09 12:59:35;;;;;;;7.53;1.70;;;16.10;99.90;;;;;;5052830;28;20664;-56
2022/11/09 13:02:27;;;;;;;12.30;2.07;;;16.20;99.90;;;;;;5056001;28;20601;-57
2022/11/09 13:05:31;;;;;;;5.73;1.77;;;16.10;99.90;;;;;;5057696;28;20238;-57
2022/11/09 13:08:22;;;;;;;8.50;1.90;;;16.10;99.90;;;;;;5054660;28;20256;-58
2022/11/09 13:11:31;;;;;;;5.30;1.90;;;16.10;99.90;;;;;;5059037;28;21107;-57
2022/11/09 13:14:34;;;;;;;6.07;1.57;;;16.00;99.90;;;;;;5062178;28;20233;-56
2022/11/09 13:17:52;;;;;;;6.37;1.40;;;15.90;99.90;;;;;;5059449;28;20249;-56
2022/11/09 13:20:50;;;;;;;5.03;1.60;;;15.80;99.90;;;;;;5056132;28;20722;-56
2022/11/09 13:23:44;;;;;;;4.80;1.30;;;15.80;99.90;;;;;;5053743;28;20844;-56
2022/11/09 13:26:58;;;;;;;5.23;1.60;;;15.80;99.90;;;;;;5054468;28;20863;-56
2022/11/09 13:29:48;;;;;;;7.70;1.50;;;15.90;99.90;;;;;;5054925;28;20250;-56
2022/11/09 13:33:22;;;;;;;7.47;1.70;;;15.90;99.90;;;;;;5056728;28;20251;-56